Time;durP1;ratioP1;P1;durP2;ratioP2;P2;SDS_P1;SDS_P2;PMS_P1;PMS_P2;Temp;Humidity;BMP_temperature;BMP_pressure;BME280_temperature;BME280_humidity;BME280_pressure;Samples;Min_cycle;Max_cycle;Signal;HPM_P1;HPM_P2
2021/03/16 00:01:09;;;;;;;;;;;16.10;62.60;;;;;;5029399;28;19914;-74
2021/03/16 00:03:35;;;;;;;;;;;16.10;62.60;;;;;;5027809;28;20687;-74
2021/03/16 00:06:00;;;;;;;;;;;16.10;62.60;;;;;;5031516;28;19913;-76
2021/03/16 00:08:26;;;;;;;;;;;16.00;62.60;;;;;;5023750;28;19916;-73
2021/03/16 00:10:53;;;;;;;;;;;16.10;62.60;;;;;;5027752;28;19913;-73
2021/03/16 00:13:19;;;;;;;;;;;16.10;62.60;;;;;;5025148;28;19913;-73
2021/03/16 00:15:45;;;;;;;;;;;16.10;62.60;;;;;;5029176;28;20279;-77
2021/03/16 00:18:16;;;;;;;;;;;16.00;62.60;;;;;;5029853;28;19928;-73
2021/03/16 00:20:42;;;;;;;;;;;16.00;62.60;;;;;;5025902;28;19971;-74
2021/03/16 00:23:08;;;;;;;;;;;16.00;62.60;;;;;;5029348;28;19913;-73
2021/03/16 00:25:34;;;;;;;;;;;16.10;62.60;;;;;;5031916;28;19920;-75
2021/03/16 00:28:00;;;;;;;;;;;16.00;62.60;;;;;;5020935;28;19928;-74
2021/03/16 00:30:26;;;;;;;;;;;16.00;62.70;;;;;;5042631;28;20317;-73
2021/03/16 00:32:52;;;;;;;;;;;16.00;62.60;;;;;;5027258;28;19946;-73
2021/03/16 00:35:17;;;;;;;;;;;16.10;62.60;;;;;;5031548;28;20294;-75
2021/03/16 00:37:43;;;;;;;;;;;16.00;62.60;;;;;;5034621;28;20393;-74
2021/03/16 00:40:13;;;;;;;;;;;16.00;62.60;;;;;;5028051;28;20458;-73
2021/03/16 00:42:39;;;;;;;;;;;16.10;62.60;;;;;;5028992;28;19923;-74
2021/03/16 00:45:05;;;;;;;;;;;16.00;62.70;;;;;;5027671;28;19999;-73
2021/03/16 00:47:30;;;;;;;;;;;16.00;62.60;;;;;;5026978;28;20373;-74
2021/03/16 00:49:56;;;;;;;;;;;16.00;62.60;;;;;;5029479;28;19917;-73
2021/03/16 00:52:21;;;;;;;;;;;16.00;62.70;;;;;;5032241;28;19960;-74
2021/03/16 00:54:47;;;;;;;;;;;16.00;62.60;;;;;;5030840;28;20290;-74
2021/03/16 00:57:13;;;;;;;;;;;16.00;62.60;;;;;;5032384;28;19917;-74
2021/03/16 00:59:38;;;;;;;;;;;16.00;62.70;;;;;;5027907;28;19929;-73
2021/03/16 01:02:04;;;;;;;;;;;16.00;62.60;;;;;;5025162;28;19913;-73
2021/03/16 01:04:29;;;;;;;;;;;16.00;62.60;;;;;;5026791;28;19959;-73
2021/03/16 01:06:55;;;;;;;;;;;16.00;62.70;;;;;;5030183;28;19913;-74
2021/03/16 01:09:20;;;;;;;;;;;16.00;62.70;;;;;;5023465;28;19967;-73
2021/03/16 01:11:46;;;;;;;;;;;16.00;62.70;;;;;;5029768;28;19928;-73
2021/03/16 01:14:11;;;;;;;;;;;16.00;62.60;;;;;;5028214;28;20362;-76
2021/03/16 01:16:37;;;;;;;;;;;16.00;62.60;;;;;;5026237;28;19913;-73
2021/03/16 01:19:02;;;;;;;;;;;16.00;62.60;;;;;;5027907;28;19928;-75
2021/03/16 01:21:28;;;;;;;;;;;16.00;62.60;;;;;;5031533;28;19914;-74
2021/03/16 01:23:53;;;;;;;;;;;16.00;62.70;;;;;;5025606;28;19928;-74
2021/03/16 01:26:19;;;;;;;;;;;16.00;62.70;;;;;;5028674;28;19947;-73
2021/03/16 01:28:44;;;;;;;;;;;16.00;62.60;;;;;;5028345;28;20290;-73
2021/03/16 01:31:10;;;;;;;;;;;16.00;62.60;;;;;;5021307;28;20028;-75
2021/03/16 01:33:36;;;;;;;;;;;16.00;62.60;;;;;;5023235;28;19921;-73
2021/03/16 01:36:01;;;;;;;;;;;16.00;62.70;;;;;;5030668;28;19914;-76
2021/03/16 01:38:34;;;;;;;;;;;16.00;62.60;;;;;;5026875;28;19932;-73
2021/03/16 01:41:00;;;;;;;;;;;16.00;62.60;;;;;;5024881;28;20378;-74
2021/03/16 01:43:31;;;;;;;;;;;16.00;62.70;;;;;;5028906;28;19927;-74
2021/03/16 01:45:59;;;;;;;;;;;16.00;62.70;;;;;;5021948;28;20015;-74
2021/03/16 01:48:26;;;;;;;;;;;16.00;62.70;;;;;;5027590;28;19938;-74
2021/03/16 01:50:52;;;;;;;;;;;16.00;62.60;;;;;;5030508;28;20268;-74
2021/03/16 01:53:18;;;;;;;;;;;16.00;62.60;;;;;;5026749;28;19917;-75
2021/03/16 01:55:44;;;;;;;;;;;16.00;62.60;;;;;;5031761;28;19913;-79
2021/03/16 01:58:09;;;;;;;;;;;16.00;62.70;;;;;;5028849;28;19963;-73
2021/03/16 02:00:41;;;;;;;;;;;16.00;62.60;;;;;;5027096;28;19925;-73
2021/03/16 02:03:07;;;;;;;;;;;16.00;62.70;;;;;;5025164;28;20382;-73
2021/03/16 02:05:33;;;;;;;;;;;16.00;62.60;;;;;;5030235;28;20429;-74
2021/03/16 02:08:01;;;;;;;;;;;16.00;62.70;;;;;;5030387;28;20000;-72
2021/03/16 02:10:27;;;;;;;;;;;16.00;62.70;;;;;;5058613;28;19917;-73
2021/03/16 02:12:56;;;;;;;;;;;16.00;62.60;;;;;;5061266;28;19928;-74
2021/03/16 02:15:42;;;;;;;;;;;16.00;62.70;;;;;;5028378;28;21720;-73
2021/03/16 02:18:13;;;;;;;;;;;16.00;62.60;;;;;;5023612;28;19913;-73
2021/03/16 02:20:38;;;;;;;;;;;16.00;62.70;;;;;;5039519;28;19921;-73
2021/03/16 02:23:05;;;;;;;;;;;16.00;62.70;;;;;;5024124;28;20011;-74
2021/03/16 02:25:41;;;;;;;;;;;16.00;62.70;;;;;;5030078;28;19967;-73
2021/03/16 02:28:15;;;;;;;;;;;16.00;62.70;;;;;;5031868;28;19917;-73
2021/03/16 02:30:42;;;;;;;;;;;16.00;62.70;;;;;;5024173;28;19996;-73
2021/03/16 02:33:11;;;;;;;;;;;16.00;62.70;;;;;;5024520;28;20358;-74
2021/03/16 02:35:42;;;;;;;;;;;16.00;62.70;;;;;;5013635;28;20387;-73
2021/03/16 02:38:09;;;;;;;;;;;16.00;62.60;;;;;;5048217;28;19916;-74
2021/03/16 02:40:36;;;;;;;;;;;16.00;62.70;;;;;;5048812;28;19975;-73
2021/03/16 02:43:02;;;;;;;;;;;16.00;62.70;;;;;;5030737;28;19974;-75
2021/03/16 02:45:29;;;;;;;;;;;16.00;62.70;;;;;;5047890;28;20361;-74
2021/03/16 02:47:55;;;;;;;;;;;16.00;62.70;;;;;;5047307;28;19939;-74
2021/03/16 02:50:21;;;;;;;;;;;16.00;62.70;;;;;;5046686;28;19917;-73
2021/03/16 02:52:47;;;;;;;;;;;16.00;62.70;;;;;;5044410;28;20560;-74
2021/03/16 02:55:13;;;;;;;;;;;16.00;62.60;;;;;;5049740;28;20003;-73
2021/03/16 02:57:39;;;;;;;;;;;16.00;62.70;;;;;;5039401;28;19921;-75
2021/03/16 03:00:06;;;;;;;;;;;16.00;62.60;;;;;;5028740;28;19928;-74
2021/03/16 03:02:33;;;;;;;;;;;16.00;62.70;;;;;;5026500;28;19913;-75
2021/03/16 03:04:59;;;;;;;;;;;16.00;62.70;;;;;;5045249;28;19920;-73
2021/03/16 03:07:29;;;;;;;;;;;16.00;62.70;;;;;;5050942;28;19938;-73
2021/03/16 03:09:59;;;;;;;;;;;16.00;62.70;;;;;;5033387;28;20305;-74
2021/03/16 03:12:25;;;;;;;;;;;16.00;62.70;;;;;;5045024;28;20370;-73
2021/03/16 03:14:50;;;;;;;;;;;15.90;62.70;;;;;;5024876;28;19921;-73
2021/03/16 03:17:16;;;;;;;;;;;16.00;62.70;;;;;;5044211;28;19916;-75
2021/03/16 03:19:41;;;;;;;;;;;16.00;62.70;;;;;;5035032;28;19959;-73
2021/03/16 03:22:11;;;;;;;;;;;15.90;62.70;;;;;;5036577;28;19951;-73
2021/03/16 03:24:40;;;;;;;;;;;15.90;62.70;;;;;;5048708;28;19921;-73
2021/03/16 03:27:06;;;;;;;;;;;15.90;62.70;;;;;;5051558;28;20413;-73
2021/03/16 03:29:32;;;;;;;;;;;15.90;62.70;;;;;;5030985;28;19912;-76
2021/03/16 03:31:58;;;;;;;;;;;16.00;62.70;;;;;;5048668;28;19917;-74
2021/03/16 03:34:24;;;;;;;;;;;15.90;62.70;;;;;;5027924;28;19956;-73
2021/03/16 03:36:52;;;;;;;;;;;16.00;62.70;;;;;;5046551;28;19956;-73
2021/03/16 03:39:18;;;;;;;;;;;16.00;62.60;;;;;;5049309;28;20294;-73
2021/03/16 03:41:44;;;;;;;;;;;15.90;62.60;;;;;;5048401;28;20358;-74
2021/03/16 03:44:14;;;;;;;;;;;16.00;62.60;;;;;;5045255;28;19935;-73
2021/03/16 03:46:41;;;;;;;;;;;15.90;62.70;;;;;;5042094;28;20379;-73
2021/03/16 03:49:08;;;;;;;;;;;16.00;62.70;;;;;;5031147;28;19923;-73
2021/03/16 03:51:35;;;;;;;;;;;15.90;62.70;;;;;;5064786;28;19913;-73
2021/03/16 03:54:01;;;;;;;;;;;15.90;62.70;;;;;;5053702;28;19913;-73
2021/03/16 03:56:29;;;;;;;;;;;16.00;62.70;;;;;;5051501;28;20334;-73
2021/03/16 03:58:57;;;;;;;;;;;16.00;62.70;;;;;;5046143;28;21426;-73
2021/03/16 04:01:23;;;;;;;;;;;15.90;62.70;;;;;;5046426;28;20314;-73
2021/03/16 04:03:49;;;;;;;;;;;15.90;62.70;;;;;;5034179;28;19920;-73
2021/03/16 04:06:19;;;;;;;;;;;16.00;62.70;;;;;;5036442;28;19913;-73
2021/03/16 04:08:49;;;;;;;;;;;15.90;62.70;;;;;;5035361;28;19919;-73
2021/03/16 04:11:14;;;;;;;;;;;15.90;62.70;;;;;;5050990;28;20405;-73
2021/03/16 04:13:40;;;;;;;;;;;15.90;62.70;;;;;;5028321;28;19968;-74
2021/03/16 04:16:10;;;;;;;;;;;15.90;62.70;;;;;;5026053;28;20362;-74
2021/03/16 04:18:36;;;;;;;;;;;15.90;62.70;;;;;;5056688;28;19944;-73
2021/03/16 04:21:01;;;;;;;;;;;15.90;62.70;;;;;;5032359;28;19944;-75
2021/03/16 04:23:27;;;;;;;;;;;15.90;62.70;;;;;;5047406;28;19924;-77
2021/03/16 04:25:53;;;;;;;;;;;15.90;62.70;;;;;;5043560;28;19921;-73
2021/03/16 04:28:18;;;;;;;;;;;15.90;62.70;;;;;;5043334;28;19921;-74
2021/03/16 04:30:44;;;;;;;;;;;15.90;62.70;;;;;;5059672;28;19920;-73
2021/03/16 04:33:09;;;;;;;;;;;15.90;62.70;;;;;;5041623;28;19913;-73
2021/03/16 04:35:35;;;;;;;;;;;15.90;62.70;;;;;;5045010;28;19948;-73
2021/03/16 04:38:00;;;;;;;;;;;15.90;62.70;;;;;;5045344;28;19959;-74
2021/03/16 04:40:26;;;;;;;;;;;15.90;62.70;;;;;;5045430;28;20010;-74
2021/03/16 04:42:51;;;;;;;;;;;15.90;62.70;;;;;;5043632;28;19916;-75
2021/03/16 04:45:17;;;;;;;;;;;15.90;62.70;;;;;;5061747;28;19971;-76
2021/03/16 04:47:42;;;;;;;;;;;15.90;62.70;;;;;;5046691;28;19928;-73
2021/03/16 04:50:08;;;;;;;;;;;15.90;62.70;;;;;;5044249;28;19921;-73
2021/03/16 04:52:34;;;;;;;;;;;15.90;62.70;;;;;;5043975;28;20316;-73
2021/03/16 04:54:59;;;;;;;;;;;15.90;62.70;;;;;;5048923;28;19920;-73
2021/03/16 04:57:25;;;;;;;;;;;15.90;62.70;;;;;;5043737;28;19943;-74
2021/03/16 04:59:51;;;;;;;;;;;15.90;62.70;;;;;;5058214;28;19927;-74
2021/03/16 05:02:16;;;;;;;;;;;15.90;62.70;;;;;;5042723;28;20361;-76
2021/03/16 05:04:42;;;;;;;;;;;15.90;62.70;;;;;;5058241;28;19920;-74
2021/03/16 05:07:12;;;;;;;;;;;15.90;62.70;;;;;;5026825;28;19928;-73
2021/03/16 05:09:38;;;;;;;;;;;15.90;62.70;;;;;;5046040;28;19991;-73
2021/03/16 05:12:09;;;;;;;;;;;15.90;62.70;;;;;;5023741;28;20796;-73
2021/03/16 05:14:34;;;;;;;;;;;15.90;62.70;;;;;;5046276;28;19965;-73
2021/03/16 05:17:00;;;;;;;;;;;15.90;62.70;;;;;;5024794;28;19914;-73
2021/03/16 05:19:25;;;;;;;;;;;15.90;62.70;;;;;;5028416;28;19935;-73
2021/03/16 05:21:50;;;;;;;;;;;15.90;62.70;;;;;;5031524;28;19913;-75
2021/03/16 05:24:16;;;;;;;;;;;15.90;62.70;;;;;;5034007;28;19917;-76
2021/03/16 05:26:41;;;;;;;;;;;15.90;62.70;;;;;;5032370;28;19917;-76
2021/03/16 05:29:07;;;;;;;;;;;15.90;62.70;;;;;;5031756;28;19995;-75
2021/03/16 05:31:33;;;;;;;;;;;15.90;62.70;;;;;;5045379;28;19912;-75
2021/03/16 05:33:58;;;;;;;;;;;15.90;62.70;;;;;;5050916;28;20006;-79
2021/03/16 05:36:24;;;;;;;;;;;15.90;62.70;;;;;;5053206;28;19909;-74
2021/03/16 05:38:52;;;;;;;;;;;15.90;62.70;;;;;;5033495;28;20286;-75
2021/03/16 05:41:24;;;;;;;;;;;15.90;62.70;;;;;;5029245;28;19947;-76
2021/03/16 05:43:50;;;;;;;;;;;15.90;62.70;;;;;;5046805;28;19913;-75
2021/03/16 05:46:16;;;;;;;;;;;15.90;62.70;;;;;;5045106;28;19913;-77
2021/03/16 05:48:47;;;;;;;;;;;15.90;62.70;;;;;;5032536;28;19917;-74
2021/03/16 05:51:17;;;;;;;;;;;15.90;62.70;;;;;;5049272;28;19912;-75
2021/03/16 05:53:48;;;;;;;;;;;15.90;62.70;;;;;;5033029;28;19916;-74
2021/03/16 05:56:13;;;;;;;;;;;15.90;62.70;;;;;;5045456;28;19917;-76
2021/03/16 05:58:39;;;;;;;;;;;15.90;62.70;;;;;;5045724;28;20381;-75
2021/03/16 06:01:05;;;;;;;;;;;15.90;62.70;;;;;;5045172;28;19975;-76
2021/03/16 06:03:30;;;;;;;;;;;15.90;62.70;;;;;;5044217;28;19949;-75
2021/03/16 06:05:59;;;;;;;;;;;15.90;62.70;;;;;;5028772;28;20262;-76
2021/03/16 06:08:24;;;;;;;;;;;15.90;62.70;;;;;;5033544;28;19959;-75
2021/03/16 06:10:52;;;;;;;;;;;15.90;62.70;;;;;;5051017;28;19912;-75
2021/03/16 06:13:18;;;;;;;;;;;15.90;62.70;;;;;;5043146;28;19917;-75
2021/03/16 06:15:43;;;;;;;;;;;15.90;62.70;;;;;;5047048;28;20263;-75
2021/03/16 06:18:22;;;;;;;;;;;15.90;62.70;;;;;;5028030;28;19913;-75
2021/03/16 06:21:05;;;;;;;;;;;15.90;62.70;;;;;;5049823;28;19923;-76
2021/03/16 06:23:34;;;;;;;;;;;15.90;62.60;;;;;;5045860;28;20394;-76
2021/03/16 06:26:05;;;;;;;;;;;16.00;62.60;;;;;;5038013;28;19920;-75
2021/03/16 06:28:34;;;;;;;;;;;15.90;62.60;;;;;;5057258;28;19967;-76
2021/03/16 06:31:04;;;;;;;;;;;15.90;62.60;;;;;;5047428;28;20362;-76
2021/03/16 06:33:31;;;;;;;;;;;15.90;62.60;;;;;;5022754;28;19917;-75
2021/03/16 06:36:01;;;;;;;;;;;15.90;62.60;;;;;;5050950;28;19924;-74
2021/03/16 06:38:27;;;;;;;;;;;15.90;62.60;;;;;;5033021;28;19931;-74
2021/03/16 06:40:53;;;;;;;;;;;15.90;62.60;;;;;;5051087;28;20000;-75
2021/03/16 06:43:24;;;;;;;;;;;15.90;62.50;;;;;;5050493;28;19917;-75
2021/03/16 06:45:51;;;;;;;;;;;15.90;62.60;;;;;;5042994;28;19909;-74
2021/03/16 06:48:17;;;;;;;;;;;15.90;62.60;;;;;;5047637;28;20539;-74
2021/03/16 06:50:43;;;;;;;;;;;15.90;62.50;;;;;;5048807;28;20305;-75
2021/03/16 06:53:17;;;;;;;;;;;16.00;62.50;;;;;;5024475;28;19917;-74
2021/03/16 06:55:55;;;;;;;;;;;15.90;62.50;;;;;;5028321;28;19917;-75
2021/03/16 06:58:21;;;;;;;;;;;15.90;62.50;;;;;;5045282;28;19913;-76
2021/03/16 07:00:47;;;;;;;;;;;15.90;62.50;;;;;;5022271;28;19963;-75
2021/03/16 07:03:13;;;;;;;;;;;16.00;62.50;;;;;;5051088;28;19971;-74
2021/03/16 07:05:39;;;;;;;;;;;16.00;62.50;;;;;;5033102;28;20286;-74
2021/03/16 07:08:11;;;;;;;;;;;16.00;62.50;;;;;;5049628;28;20363;-77
2021/03/16 07:10:39;;;;;;;;;;;16.00;62.50;;;;;;5044150;28;19920;-75
2021/03/16 07:13:05;;;;;;;;;;;16.00;62.50;;;;;;5047919;28;19968;-76
2021/03/16 07:15:37;;;;;;;;;;;15.90;62.50;;;;;;5045551;28;19913;-75
2021/03/16 07:18:03;;;;;;;;;;;16.00;62.50;;;;;;5028463;28;19963;-75
2021/03/16 07:20:32;;;;;;;;;;;16.00;62.50;;;;;;5045452;28;19956;-76
2021/03/16 07:22:58;;;;;;;;;;;16.00;62.50;;;;;;5028079;28;19916;-75
2021/03/16 07:25:24;;;;;;;;;;;15.90;62.40;;;;;;5051206;28;19947;-76
2021/03/16 07:27:50;;;;;;;;;;;16.00;62.40;;;;;;5059533;28;19916;-76
2021/03/16 07:30:16;;;;;;;;;;;16.00;62.40;;;;;;5041455;28;20362;-79
2021/03/16 07:32:42;;;;;;;;;;;16.00;62.40;;;;;;5040418;28;19917;-74
2021/03/16 07:35:08;;;;;;;;;;;16.00;62.30;;;;;;5045387;28;19913;-75
2021/03/16 07:37:34;;;;;;;;;;;16.00;62.20;;;;;;5045819;28;20355;-74
2021/03/16 07:40:00;;;;;;;;;;;16.00;62.20;;;;;;5045664;28;20366;-74
2021/03/16 07:42:26;;;;;;;;;;;16.00;62.20;;;;;;5047320;28;19916;-74
2021/03/16 07:44:51;;;;;;;;;;;16.00;62.30;;;;;;5043944;28;20489;-77
2021/03/16 07:47:31;;;;;;;;;;;16.00;62.30;;;;;;5044836;28;20302;-77
2021/03/16 07:50:00;;;;;;;;;;;16.00;62.30;;;;;;5047842;28;19917;-75
2021/03/16 07:52:26;;;;;;;;;;;16.00;62.30;;;;;;5026680;28;19923;-75
2021/03/16 07:54:52;;;;;;;;;;;16.00;62.30;;;;;;5046354;28;20043;-77
2021/03/16 07:57:25;;;;;;;;;;;16.00;62.30;;;;;;5047549;28;19929;-76
2021/03/16 08:00:00;;;;;;;;;;;16.00;62.30;;;;;;5029697;28;20292;-77
2021/03/16 08:02:27;;;;;;;;;;;16.00;62.20;;;;;;5025599;28;19966;-75
2021/03/16 08:04:52;;;;;;;;;;;16.00;62.20;;;;;;5034067;28;19924;-75
2021/03/16 08:07:22;;;;;;;;;;;16.00;62.20;;;;;;5034848;28;19913;-74
2021/03/16 08:09:51;;;;;;;;;;;16.00;62.30;;;;;;5035512;28;19913;-75
2021/03/16 08:12:21;;;;;;;;;;;16.00;62.30;;;;;;5031021;28;19943;-76
2021/03/16 08:14:57;;;;;;;;;;;16.00;62.20;;;;;;5026640;28;19959;-76
2021/03/16 08:17:36;;;;;;;;;;;16.00;62.20;;;;;;5034817;28;19913;-80
2021/03/16 08:20:03;;;;;;;;;;;16.10;62.20;;;;;;5030555;28;20019;-77
2021/03/16 08:22:28;;;;;;;;;;;16.10;62.10;;;;;;5032344;28;19919;-77
2021/03/16 08:25:01;;;;;;;;;;;16.10;62.10;;;;;;5053469;28;20282;-77
2021/03/16 08:27:32;;;;;;;;;;;16.10;62.10;;;;;;5028654;28;19916;-80
2021/03/16 08:29:59;;;;;;;;;;;16.10;62.10;;;;;;5036572;28;19927;-81
2021/03/16 08:32:25;;;;;;;;;;;16.10;62.10;;;;;;5027641;28;19951;-77
2021/03/16 08:34:55;;;;;;;;;;;16.10;62.00;;;;;;5052189;28;19913;-76
2021/03/16 08:37:28;;;;;;;;;;;16.10;61.90;;;;;;5036970;28;19952;-78
2021/03/16 08:39:54;;;;;;;;;;;16.10;61.90;;;;;;5052752;28;19967;-76
2021/03/16 08:42:21;;;;;;;;;;;16.10;61.90;;;;;;5027503;28;19913;-76
2021/03/16 08:44:51;;;;;;;;;;;16.10;61.80;;;;;;5033457;28;19994;-76
2021/03/16 08:47:21;;;;;;;;;;;16.20;61.80;;;;;;5029806;28;19917;-78
2021/03/16 08:49:54;;;;;;;;;;;16.20;61.80;;;;;;5048387;28;19920;-76
2021/03/16 08:52:24;;;;;;;;;;;16.20;61.70;;;;;;5034334;28;19912;-78
2021/03/16 08:54:50;;;;;;;;;;;16.20;61.70;;;;;;5044840;28;19913;-76
2021/03/16 08:57:17;;;;;;;;;;;16.20;61.70;;;;;;5032891;28;19954;-77
2021/03/16 08:59:54;;;;;;;;;;;16.20;61.70;;;;;;5050854;28;19925;-78
2021/03/16 09:02:28;;;;;;;;;;;16.20;61.70;;;;;;5029384;28;19920;-79
2021/03/16 09:04:54;;;;;;;;;;;16.20;61.60;;;;;;5028932;28;19913;-76
2021/03/16 09:07:21;;;;;;;;;;;16.30;61.50;;;;;;5031955;28;19912;-78
2021/03/16 09:09:53;;;;;;;;;;;16.20;61.50;;;;;;5030150;28;20363;-77
2021/03/16 09:12:28;;;;;;;;;;;16.20;61.50;;;;;;5049908;28;19938;-79
2021/03/16 09:14:54;;;;;;;;;;;16.30;61.50;;;;;;5028329;28;19920;-77
2021/03/16 09:17:20;;;;;;;;;;;16.20;61.50;;;;;;5049414;28;19920;-76
2021/03/16 09:19:51;;;;;;;;;;;16.20;61.50;;;;;;5030152;28;19921;-77
2021/03/16 09:22:17;;;;;;;;;;;16.20;61.50;;;;;;5064567;28;19920;-77
2021/03/16 09:24:58;;;;;;;;;;;16.20;61.50;;;;;;5051869;28;20290;-79
2021/03/16 09:27:24;;;;;;;;;;;16.20;61.60;;;;;;5045308;28;20282;-80
2021/03/16 09:29:50;;;;;;;;;;;16.20;61.50;;;;;;5042475;28;19914;-78
2021/03/16 09:32:17;;;;;;;;;;;16.30;61.40;;;;;;5030563;28;19921;-76
2021/03/16 09:34:46;;;;;;;;;;;16.30;61.40;;;;;;5030335;28;19946;-75
2021/03/16 09:37:14;;;;;;;;;;;16.30;61.30;;;;;;5035059;28;19912;-74
2021/03/16 09:39:50;;;;;;;;;;;16.30;61.20;;;;;;5036728;28;19985;-76
2021/03/16 09:42:15;;;;;;;;;;;16.30;61.20;;;;;;5029454;28;19912;-75
2021/03/16 09:44:43;;;;;;;;;;;16.30;61.20;;;;;;5027337;28;20393;-76
2021/03/16 09:47:09;;;;;;;;;;;16.30;61.20;;;;;;5026594;28;19944;-78
2021/03/16 09:49:39;;;;;;;;;;;16.30;61.20;;;;;;5029938;28;20346;-75
2021/03/16 09:52:15;;;;;;;;;;;16.30;61.20;;;;;;5050855;28;19924;-75
2021/03/16 09:54:44;;;;;;;;;;;16.30;61.20;;;;;;5048211;28;19912;-75
2021/03/16 09:57:10;;;;;;;;;;;16.30;61.20;;;;;;5031921;28;20425;-75
2021/03/16 09:59:40;;;;;;;;;;;16.30;61.10;;;;;;5045265;28;20015;-76
2021/03/16 10:02:06;;;;;;;;;;;16.40;61.00;;;;;;5026393;28;19936;-75
2021/03/16 10:04:47;;;;;;;;;;;16.40;60.90;;;;;;5045226;28;20271;-78
2021/03/16 10:07:26;;;;;;;;;;;16.40;60.90;;;;;;5033868;28;19924;-75
2021/03/16 10:09:56;;;;;;;;;;;16.30;61.00;;;;;;5027466;28;19913;-76
2021/03/16 10:12:22;;;;;;;;;;;16.30;61.00;;;;;;5042970;28;20294;-75
2021/03/16 10:14:52;;;;;;;;;;;16.30;61.10;;;;;;5047696;28;19916;-75
2021/03/16 10:17:25;;;;;;;;;;;16.30;61.20;;;;;;5048352;28;19923;-75
2021/03/16 10:19:57;;;;;;;;;;;16.30;61.30;;;;;;5028580;28;19935;-75
2021/03/16 10:22:26;;;;;;;;;;;16.30;61.40;;;;;;5047939;28;19916;-76
2021/03/16 10:24:56;;;;;;;;;;;16.30;61.50;;;;;;5018597;28;20301;-78
2021/03/16 10:27:29;;;;;;;;;;;16.30;61.50;;;;;;5047117;28;19967;-76
2021/03/16 10:30:04;;;;;;;;;;;16.30;61.40;;;;;;5037907;28;20011;-75
2021/03/16 10:32:29;;;;;;;;;;;16.30;61.40;;;;;;5042845;28;19952;-75
2021/03/16 10:34:55;;;;;;;;;;;16.30;61.30;;;;;;5011309;28;19986;-75
2021/03/16 10:37:22;;;;;;;;;;;16.30;61.20;;;;;;5051991;28;19913;-75
2021/03/16 10:39:47;;;;;;;;;;;16.30;61.10;;;;;;5043298;28;20425;-75
2021/03/16 10:42:13;;;;;;;;;;;16.40;61.00;;;;;;5042102;28;19996;-74
2021/03/16 10:44:45;;;;;;;;;;;16.40;61.00;;;;;;5039810;28;19920;-74
2021/03/16 10:47:24;;;;;;;;;;;16.40;60.90;;;;;;5025455;28;19963;-73
2021/03/16 10:49:49;;;;;;;;;;;16.40;60.90;;;;;;5029588;28;20032;-76
2021/03/16 10:52:15;;;;;;;;;;;16.40;61.00;;;;;;5032118;28;20347;-75
2021/03/16 10:54:46;;;;;;;;;;;16.30;61.00;;;;;;5030303;28;19913;-77
2021/03/16 10:57:14;;;;;;;;;;;16.40;60.90;;;;;;5026901;28;20613;-77
2021/03/16 10:59:40;;;;;;;;;;;16.40;60.90;;;;;;5038327;28;20341;-75
2021/03/16 11:02:08;;;;;;;;;;;16.40;60.80;;;;;;5022619;28;19922;-77
2021/03/16 11:04:48;;;;;;;;;;;16.50;60.70;;;;;;5039749;28;19920;-74
2021/03/16 11:07:13;;;;;;;;;;;16.50;60.70;;;;;;5034536;28;19920;-76
2021/03/16 11:09:39;;;;;;;;;;;16.50;60.60;;;;;;5046304;28;20278;-76
2021/03/16 11:12:05;;;;;;;;;;;16.50;60.60;;;;;;5030512;28;19913;-77
2021/03/16 11:14:30;;;;;;;;;;;16.50;60.60;;;;;;5040454;28;19959;-79
2021/03/16 11:16:55;;;;;;;;;;;16.50;60.60;;;;;;5040649;28;19913;-74
2021/03/16 11:19:21;;;;;;;;;;;16.50;60.60;;;;;;5048990;28;19921;-75
2021/03/16 11:21:47;;;;;;;;;;;16.50;60.60;;;;;;5033389;28;20317;-76
2021/03/16 11:24:13;;;;;;;;;;;16.40;60.60;;;;;;5047715;28;19913;-75
2021/03/16 11:26:51;;;;;;;;;;;16.50;60.70;;;;;;5031868;28;19919;-74
2021/03/16 11:29:16;;;;;;;;;;;16.40;60.70;;;;;;5045039;28;19955;-74
2021/03/16 11:31:47;;;;;;;;;;;16.40;60.70;;;;;;5044628;28;19967;-74
2021/03/16 11:34:19;;;;;;;;;;;16.40;60.80;;;;;;5043782;28;19917;-74
2021/03/16 11:36:44;;;;;;;;;;;16.40;60.80;;;;;;5046791;28;19913;-74
2021/03/16 11:39:16;;;;;;;;;;;16.40;60.80;;;;;;5057434;28;20277;-75
2021/03/16 11:41:41;;;;;;;;;;;16.40;60.80;;;;;;5035533;28;19967;-74
2021/03/16 11:44:12;;;;;;;;;;;16.40;60.80;;;;;;5032978;28;19963;-75
2021/03/16 11:46:37;;;;;;;;;;;16.50;60.70;;;;;;5048283;28;19916;-75
2021/03/16 11:49:02;;;;;;;;;;;16.50;60.70;;;;;;5054780;28;20373;-75
2021/03/16 11:51:28;;;;;;;;;;;16.50;60.60;;;;;;5069552;28;19916;-76
2021/03/16 11:53:53;;;;;;;;;;;16.50;60.60;;;;;;5063554;28;19913;-74
2021/03/16 11:56:19;;;;;;;;;;;16.50;60.50;;;;;;5048737;28;19918;-75
2021/03/16 11:58:51;;;;;;;;;;;16.50;60.50;;;;;;5045337;28;19920;-75
2021/03/16 12:01:27;;;;;;;;;;;16.50;60.60;;;;;;5032627;28;19925;-74
2021/03/16 12:03:54;;;;;;;;;;;16.50;60.50;;;;;;5048337;28;19921;-75
2021/03/16 12:06:20;;;;;;;;;;;16.50;60.50;;;;;;5050310;28;21391;-74
2021/03/16 12:08:45;;;;;;;;;;;16.50;60.50;;;;;;5035191;28;19913;-74
2021/03/16 12:11:13;;;;;;;;;;;16.50;60.40;;;;;;5052901;28;19935;-76
2021/03/16 12:13:44;;;;;;;;;;;16.50;60.50;;;;;;5049865;28;19912;-74
2021/03/16 12:16:09;;;;;;;;;;;16.50;60.50;;;;;;5032488;28;20428;-75
2021/03/16 12:18:35;;;;;;;;;;;16.50;60.50;;;;;;5052017;28;20003;-74
2021/03/16 12:21:05;;;;;;;;;;;16.50;60.60;;;;;;5034696;28;19917;-75
2021/03/16 12:23:31;;;;;;;;;;;16.50;60.60;;;;;;5049104;28;19927;-75
2021/03/16 12:25:56;;;;;;;;;;;16.50;60.60;;;;;;5053331;28;19921;-74
2021/03/16 12:28:22;;;;;;;;;;;16.50;60.60;;;;;;5059612;28;20408;-77
2021/03/16 12:30:48;;;;;;;;;;;16.40;60.70;;;;;;5048676;28;19916;-74
2021/03/16 12:33:14;;;;;;;;;;;16.40;60.70;;;;;;5045070;28;19913;-75
2021/03/16 12:35:40;;;;;;;;;;;16.40;60.70;;;;;;5039557;28;20014;-73
2021/03/16 12:38:05;;;;;;;;;;;16.40;60.70;;;;;;5050488;28;19927;-74
2021/03/16 12:40:35;;;;;;;;;;;16.50;60.60;;;;;;5067687;28;19917;-75
2021/03/16 12:43:06;;;;;;;;;;;16.50;60.50;;;;;;5044514;28;19924;-74
2021/03/16 12:45:37;;;;;;;;;;;16.50;60.50;;;;;;5044098;28;19916;-76
2021/03/16 12:48:02;;;;;;;;;;;16.50;60.40;;;;;;5031506;28;19908;-75
2021/03/16 12:50:28;;;;;;;;;;;16.50;60.40;;;;;;5033143;28;19916;-75
2021/03/16 12:52:53;;;;;;;;;;;16.50;60.40;;;;;;5035129;28;19916;-74
2021/03/16 12:55:19;;;;;;;;;;;16.50;60.40;;;;;;5051294;28;19913;-74
2021/03/16 12:57:45;;;;;;;;;;;16.50;60.40;;;;;;5047865;28;19921;-74
2021/03/16 13:00:17;;;;;;;;;;;16.50;60.40;;;;;;5043889;28;19931;-77
2021/03/16 13:02:42;;;;;;;;;;;16.50;60.40;;;;;;5043039;28;20017;-76
2021/03/16 13:05:13;;;;;;;;;;;16.50;60.40;;;;;;5070132;28;20324;-78
2021/03/16 13:07:38;;;;;;;;;;;16.50;60.40;;;;;;5034980;28;19917;-75
2021/03/16 13:10:04;;;;;;;;;;;16.50;60.50;;;;;;5051698;28;19913;-75
2021/03/16 13:12:30;;;;;;;;;;;16.50;60.50;;;;;;5051017;28;19923;-75
2021/03/16 13:14:55;;;;;;;;;;;16.50;60.40;;;;;;5032306;28;19938;-75
2021/03/16 13:17:21;;;;;;;;;;;16.50;60.50;;;;;;5050128;28;20019;-75
2021/03/16 13:19:46;;;;;;;;;;;16.50;60.40;;;;;;5061571;28;19935;-75
2021/03/16 13:22:12;;;;;;;;;;;16.50;60.50;;;;;;5051404;28;19912;-76
2021/03/16 13:24:37;;;;;;;;;;;16.50;60.60;;;;;;5053665;28;19923;-75
2021/03/16 13:27:03;;;;;;;;;;;16.50;60.60;;;;;;5042199;28;19976;-76
2021/03/16 13:29:28;;;;;;;;;;;16.50;60.60;;;;;;5056693;28;19996;-75
2021/03/16 13:31:55;;;;;;;;;;;16.50;60.60;;;;;;5030880;28;20445;-77
2021/03/16 13:34:21;;;;;;;;;;;16.50;60.50;;;;;;5026932;28;19955;-76
2021/03/16 13:36:52;;;;;;;;;;;16.50;60.50;;;;;;5033333;28;19959;-75
2021/03/16 13:39:18;;;;;;;;;;;16.50;60.40;;;;;;5043470;28;19958;-76
2021/03/16 13:41:43;;;;;;;;;;;16.50;60.50;;;;;;5044642;28;19921;-76
2021/03/16 13:44:09;;;;;;;;;;;16.50;60.40;;;;;;5044896;28;19996;-74
2021/03/16 13:46:34;;;;;;;;;;;16.50;60.40;;;;;;5041992;28;19921;-76
2021/03/16 13:49:00;;;;;;;;;;;16.50;60.40;;;;;;5045869;28;19960;-75
2021/03/16 13:51:25;;;;;;;;;;;16.50;60.50;;;;;;5027844;28;20000;-74
2021/03/16 13:53:51;;;;;;;;;;;16.50;60.50;;;;;;5043537;28;20400;-75
2021/03/16 13:56:16;;;;;;;;;;;16.50;60.50;;;;;;5044191;28;19916;-79
2021/03/16 13:58:42;;;;;;;;;;;16.50;60.50;;;;;;5023500;28;19963;-77
2021/03/16 14:01:13;;;;;;;;;;;16.50;60.50;;;;;;5025725;28;19925;-76
2021/03/16 14:03:41;;;;;;;;;;;16.50;60.50;;;;;;5040288;28;19921;-76
2021/03/16 14:06:06;;;;;;;;;;;16.50;60.50;;;;;;5024413;28;19913;-74
2021/03/16 14:08:32;;;;;;;;;;;16.50;60.50;;;;;;5028286;28;19963;-75
2021/03/16 14:10:57;;;;;;;;;;;16.50;60.50;;;;;;5044648;28;20298;-74
2021/03/16 14:13:23;;;;;;;;;;;16.50;60.50;;;;;;5039271;28;19925;-74
2021/03/16 14:15:48;;;;;;;;;;;16.40;60.50;;;;;;5053145;28;20317;-74
2021/03/16 14:18:16;;;;;;;;;;;16.50;60.50;;;;;;5037644;28;19917;-74